createdAt,value
2019-01-26T00:01:55.829Z,40.00
2019-01-26T00:04:21.984Z,39.90
2019-01-26T00:06:48.126Z,40.10
2019-01-26T00:09:14.285Z,40.30
2019-01-26T00:11:40.425Z,40.40
2019-01-26T00:14:06.576Z,40.50
2019-01-26T00:16:32.737Z,40.40
2019-01-26T00:18:58.902Z,40.40
2019-01-26T00:21:25.825Z,40.60
2019-01-26T00:23:51.987Z,40.60
2019-01-26T00:26:18.133Z,40.60
2019-01-26T00:28:44.276Z,40.60
2019-01-26T00:31:10.433Z,40.80
2019-01-26T00:33:36.588Z,40.80
2019-01-26T00:36:02.740Z,40.80
2019-01-26T00:38:28.934Z,40.90
2019-01-26T00:40:55.085Z,40.80
2019-01-26T00:43:21.267Z,40.90
2019-01-26T00:45:47.411Z,40.90
2019-01-26T00:48:14.336Z,41.10
2019-01-26T00:50:40.478Z,41.00
2019-01-26T00:53:06.643Z,41.10
2019-01-26T00:55:32.805Z,41.10
2019-01-26T00:57:58.991Z,41.40
2019-01-26T01:00:25.149Z,41.30
2019-01-26T01:02:51.300Z,41.30
2019-01-26T01:05:17.448Z,41.30
2019-01-26T01:07:43.649Z,41.50
2019-01-26T01:10:09.781Z,41.40
2019-01-26T01:12:35.938Z,41.60
2019-01-26T01:15:02.854Z,41.60
2019-01-26T01:17:29.012Z,41.50
2019-01-26T01:19:55.151Z,41.70
2019-01-26T01:22:21.317Z,41.50
2019-01-26T01:24:47.482Z,41.60
2019-01-26T01:27:14.400Z,41.70
2019-01-26T01:29:40.564Z,41.70
2019-01-26T01:32:06.716Z,41.80
2019-01-26T01:34:32.870Z,41.70
2019-01-26T01:36:59.024Z,41.70
2019-01-26T01:39:25.265Z,41.80
2019-01-26T01:41:51.375Z,41.80
2019-01-26T01:44:17.537Z,41.80
2019-01-26T01:46:43.688Z,41.90
2019-01-26T01:49:09.840Z,41.80
2019-01-26T01:51:35.992Z,42.00
2019-01-26T01:54:02.142Z,42.00
2019-01-26T01:56:28.294Z,42.00
2019-01-26T01:58:54.452Z,42.20
2019-01-26T02:01:20.609Z,42.20
2019-01-26T02:03:46.765Z,42.10
2019-01-26T02:06:12.913Z,42.10
2019-01-26T02:08:39.060Z,42.10
2019-01-26T02:11:05.220Z,42.20
2019-01-26T02:13:31.373Z,42.40
2019-01-26T02:15:57.543Z,42.50
2019-01-26T02:18:23.701Z,42.40
2019-01-26T02:20:49.844Z,42.30
2019-01-26T02:23:15.990Z,42.30
2019-01-26T02:25:42.137Z,42.30
2019-01-26T02:28:08.292Z,42.60
2019-01-26T02:30:34.537Z,42.60
2019-01-26T02:33:00.656Z,42.60
2019-01-26T02:35:27.129Z,42.80
2019-01-26T02:37:53.285Z,42.80
2019-01-26T02:40:19.428Z,42.80
2019-01-26T02:42:45.574Z,43.00
2019-01-26T02:45:11.716Z,42.90
2019-01-26T02:47:37.867Z,42.90
2019-01-26T02:50:04.025Z,42.80
2019-01-26T02:52:30.182Z,42.90
2019-01-26T02:54:57.081Z,42.90
2019-01-26T02:57:23.233Z,42.90
2019-01-26T02:59:49.388Z,43.10
2019-01-26T03:02:15.552Z,43.20
2019-01-26T03:04:41.726Z,43.10
2019-01-26T03:07:07.877Z,43.20
2019-01-26T03:09:34.032Z,43.30
2019-01-26T03:12:00.199Z,43.40
2019-01-26T03:14:26.343Z,43.30
2019-01-26T03:16:52.521Z,43.40
2019-01-26T03:19:18.687Z,43.40
2019-01-26T03:21:44.853Z,43.50
2019-01-26T03:24:11.769Z,43.70
2019-01-26T03:26:38.324Z,43.70
2019-01-26T03:29:04.471Z,43.70
2019-01-26T03:31:30.639Z,43.50
2019-01-26T03:33:56.791Z,43.70
2019-01-26T03:36:22.949Z,43.70
2019-01-26T03:38:49.106Z,43.60
2019-01-26T03:41:15.261Z,43.60
2019-01-26T03:43:42.175Z,43.70
2019-01-26T03:46:08.320Z,43.70
2019-01-26T03:48:34.493Z,44.00
2019-01-26T03:51:00.648Z,43.80
2019-01-26T03:53:26.796Z,43.70
2019-01-26T03:55:52.957Z,43.70
2019-01-26T03:58:19.122Z,43.80
2019-01-26T04:00:45.277Z,43.80
2019-01-26T04:03:11.429Z,43.90
2019-01-26T04:05:37.579Z,44.00
2019-01-26T04:08:03.736Z,44.20
2019-01-26T04:10:29.884Z,44.10
2019-01-26T04:12:56.038Z,43.90
2019-01-26T04:15:22.199Z,44.00
2019-01-26T04:17:48.352Z,44.00
2019-01-26T04:20:14.496Z,44.00
2019-01-26T04:22:40.639Z,44.10
2019-01-26T04:25:06.788Z,44.10
2019-01-26T04:27:32.941Z,44.00
2019-01-26T04:29:59.096Z,44.20
2019-01-26T04:32:25.249Z,44.20
2019-01-26T04:34:51.421Z,44.20
2019-01-26T04:37:17.564Z,44.20
2019-01-26T04:39:43.728Z,44.20
2019-01-26T04:42:09.880Z,44.40
2019-01-26T04:44:36.057Z,44.40
2019-01-26T04:47:02.208Z,44.40
2019-01-26T04:49:28.361Z,44.20
2019-01-26T04:51:54.514Z,44.70
2019-01-26T04:54:21.443Z,44.70
2019-01-26T04:56:47.602Z,44.60
2019-01-26T04:59:13.769Z,44.90
2019-01-26T05:01:39.919Z,44.70
2019-01-26T05:04:06.063Z,45.50
2019-01-26T05:06:32.980Z,45.00
2019-01-26T05:08:59.149Z,45.00
2019-01-26T05:11:25.296Z,45.10
2019-01-26T05:13:51.448Z,45.00
2019-01-26T05:16:17.615Z,45.00
2019-01-26T05:18:44.532Z,45.00
2019-01-26T05:21:10.677Z,44.90
2019-01-26T05:23:36.832Z,45.00
2019-01-26T05:26:02.980Z,45.10
2019-01-26T05:28:29.128Z,45.10
2019-01-26T05:30:55.312Z,45.10
2019-01-26T05:33:21.459Z,45.20
2019-01-26T05:35:47.609Z,45.40
2019-01-26T05:38:13.764Z,45.90
2019-01-26T05:40:39.935Z,45.50
2019-01-26T05:43:06.090Z,45.70
2019-01-26T05:45:32.275Z,45.50
2019-01-26T05:47:58.424Z,45.60
2019-01-26T05:50:24.618Z,45.60
2019-01-26T05:52:50.833Z,45.40
2019-01-26T05:55:16.996Z,45.50
2019-01-26T05:57:43.136Z,45.80
2019-01-26T06:00:09.287Z,45.60
2019-01-26T06:02:35.436Z,45.80
2019-01-26T06:05:01.588Z,45.80
2019-01-26T06:07:27.749Z,45.90
2019-01-26T06:09:53.904Z,45.80
2019-01-26T06:12:20.065Z,45.80
2019-01-26T06:14:46.977Z,45.90
2019-01-26T06:17:13.126Z,45.80
2019-01-26T06:19:39.277Z,45.90
2019-01-26T06:22:05.438Z,46.10
2019-01-26T06:24:31.585Z,46.20
2019-01-26T06:26:57.754Z,46.30
2019-01-26T06:29:23.895Z,46.00
2019-01-26T06:31:50.056Z,46.00
2019-01-26T06:34:16.218Z,46.40
2019-01-26T06:36:42.377Z,46.60
2019-01-26T06:39:08.541Z,46.50
2019-01-26T06:41:34.716Z,46.50
2019-01-26T06:44:00.870Z,46.70
2019-01-26T06:46:27.953Z,47.30
2019-01-26T06:48:54.113Z,47.10
2019-01-26T06:51:20.276Z,46.90
2019-01-26T06:53:46.423Z,46.80
2019-01-26T06:56:12.582Z,46.80
2019-01-26T06:58:38.733Z,47.20
2019-01-26T07:01:04.885Z,47.10
2019-01-26T07:03:31.045Z,47.60
2019-01-26T07:05:57.189Z,47.70
2019-01-26T07:08:23.327Z,47.50
2019-01-26T07:10:50.243Z,47.90
2019-01-26T07:13:16.404Z,47.50
2019-01-26T07:15:42.554Z,47.70
2019-01-26T07:18:09.455Z,47.60
2019-01-26T07:20:34.906Z,47.50
2019-01-26T07:23:01.066Z,48.00
2019-01-26T07:25:27.213Z,47.60
2019-01-26T07:27:53.361Z,48.50
2019-01-26T07:30:19.512Z,47.80
2019-01-26T07:32:45.660Z,48.00
2019-01-26T07:35:11.817Z,47.90
2019-01-26T07:37:37.972Z,49.10
2019-01-26T07:40:04.120Z,48.00
2019-01-26T07:42:30.270Z,48.20
2019-01-26T07:44:56.424Z,48.20
2019-01-26T07:47:22.572Z,48.20
2019-01-26T07:49:48.757Z,48.30
2019-01-26T07:52:16.013Z,48.20
2019-01-26T07:54:42.167Z,48.50
2019-01-26T07:57:08.312Z,48.70
2019-01-26T07:59:35.242Z,48.30
2019-01-26T08:02:01.400Z,48.30
2019-01-26T08:04:27.561Z,48.60
2019-01-26T08:06:53.708Z,48.80
2019-01-26T08:09:19.877Z,48.70
2019-01-26T08:11:46.028Z,48.70
2019-01-26T08:14:12.217Z,48.80
2019-01-26T08:16:38.360Z,48.60
2019-01-26T08:19:04.525Z,49.10
2019-01-26T08:21:30.684Z,48.70
2019-01-26T08:23:56.848Z,48.70
2019-01-26T08:26:23.016Z,48.80
2019-01-26T08:28:49.160Z,48.60
2019-01-26T08:31:15.310Z,48.80
2019-01-26T08:33:41.460Z,48.90
2019-01-26T08:36:07.612Z,48.70
2019-01-26T08:38:33.787Z,48.70
2019-01-26T08:41:00.711Z,49.10
2019-01-26T08:43:26.862Z,49.00
2019-01-26T08:45:53.026Z,48.90
2019-01-26T08:48:19.195Z,48.90
2019-01-26T08:50:45.351Z,48.80
2019-01-26T08:53:11.495Z,49.00
2019-01-26T08:55:39.561Z,49.00
2019-01-26T08:58:05.723Z,48.80
2019-01-26T09:00:31.869Z,48.90
2019-01-26T09:02:58.017Z,48.90
2019-01-26T09:05:24.160Z,49.00
2019-01-26T09:07:50.305Z,49.20
2019-01-26T09:10:16.465Z,48.90
2019-01-26T09:12:42.612Z,49.10
2019-01-26T09:15:09.541Z,48.70
2019-01-26T09:17:35.699Z,48.70
2019-01-26T09:20:01.883Z,49.00
2019-01-26T09:22:28.044Z,49.10
2019-01-26T09:24:54.200Z,49.10
2019-01-26T09:27:20.355Z,48.70
2019-01-26T09:29:46.503Z,48.70
2019-01-26T09:32:12.664Z,49.00
2019-01-26T09:34:38.817Z,49.00
2019-01-26T09:37:04.985Z,48.80
2019-01-26T09:39:31.137Z,49.00
2019-01-26T09:41:58.068Z,49.10
2019-01-26T09:44:24.226Z,49.10
2019-01-26T09:46:50.384Z,49.20
2019-01-26T09:49:16.534Z,49.20
2019-01-26T09:51:42.685Z,49.40
2019-01-26T09:54:09.597Z,49.20
2019-01-26T09:56:35.761Z,49.20
2019-01-26T09:59:01.932Z,49.60
2019-01-26T10:01:28.083Z,49.60
2019-01-26T10:03:54.232Z,49.50
2019-01-26T10:06:21.154Z,49.60
2019-01-26T10:08:47.297Z,49.60
2019-01-26T10:11:13.449Z,49.90
2019-01-26T10:13:39.597Z,49.70
2019-01-26T10:16:05.743Z,49.90
2019-01-26T10:18:31.915Z,49.70
2019-01-26T10:20:58.072Z,49.60
2019-01-26T10:23:24.246Z,50.10
2019-01-26T10:25:50.391Z,50.00
2019-01-26T10:28:16.552Z,49.70
2019-01-26T10:30:42.705Z,50.00
2019-01-26T10:33:08.868Z,50.00
2019-01-26T10:35:35.019Z,49.90
2019-01-26T10:38:01.224Z,50.00
2019-01-26T10:40:27.369Z,49.90
2019-01-26T10:42:53.521Z,49.80
2019-01-26T10:45:19.684Z,49.70
2019-01-26T10:47:46.616Z,50.90
2019-01-26T10:50:12.767Z,50.20
2019-01-26T10:52:38.916Z,50.00
2019-01-26T10:55:05.067Z,49.60
2019-01-26T10:57:31.207Z,49.70
2019-01-26T10:59:57.362Z,49.90
2019-01-26T11:02:23.508Z,49.90
2019-01-26T11:04:49.663Z,49.70
2019-01-26T11:07:15.930Z,50.00
2019-01-26T11:09:42.013Z,50.30
2019-01-26T11:12:08.161Z,50.00
2019-01-26T11:14:34.328Z,50.20
2019-01-26T11:17:00.485Z,49.90
2019-01-26T11:19:26.656Z,50.20
2019-01-26T11:21:52.812Z,50.50
2019-01-26T11:24:18.985Z,50.50
2019-01-26T11:26:49.213Z,50.40
2019-01-26T11:29:12.119Z,50.70
2019-01-26T11:31:38.263Z,50.70
2019-01-26T11:34:04.421Z,50.50
2019-01-26T11:36:30.576Z,50.60
2019-01-26T11:38:56.725Z,50.60
2019-01-26T11:41:23.634Z,50.70
2019-01-26T11:43:49.786Z,50.70
2019-01-26T11:46:15.941Z,50.70
2019-01-26T11:48:42.105Z,50.70
2019-01-26T11:51:08.253Z,50.90
2019-01-26T11:53:34.405Z,50.70
2019-01-26T11:56:00.584Z,50.80
2019-01-26T11:58:26.749Z,51.00
2019-01-26T12:00:59.125Z,50.80
2019-01-26T12:03:19.098Z,51.00
2019-01-26T12:05:45.241Z,50.60
2019-01-26T12:08:12.162Z,51.10
2019-01-26T12:10:38.316Z,51.10
2019-01-26T12:13:04.475Z,50.80
2019-01-26T12:15:30.620Z,51.00
2019-01-26T12:17:56.780Z,51.00
2019-01-26T12:20:23.701Z,52.60
2019-01-26T12:22:49.851Z,52.60
2019-01-26T12:25:16.002Z,52.60
2019-01-26T12:27:42.151Z,52.50
2019-01-26T12:30:08.308Z,52.20
2019-01-26T12:32:34.451Z,51.90
2019-01-26T12:35:00.606Z,51.60
2019-01-26T12:37:26.762Z,51.10
2019-01-26T12:39:52.922Z,50.80
2019-01-26T12:42:19.075Z,50.60
2019-01-26T12:44:45.993Z,50.10
2019-01-26T12:47:16.921Z,50.10
2019-01-26T12:49:38.352Z,49.90
2019-01-26T12:52:04.529Z,49.80
2019-01-26T12:54:30.679Z,49.60
2019-01-26T12:56:56.829Z,49.40
2019-01-26T12:59:22.989Z,49.30
2019-01-26T13:01:49.137Z,49.20
2019-01-26T13:04:15.281Z,49.10
2019-01-26T13:06:42.205Z,48.90
2019-01-26T13:09:08.357Z,48.90
2019-01-26T13:11:34.517Z,48.90
2019-01-26T13:14:00.674Z,49.00
2019-01-26T13:16:26.832Z,48.90
2019-01-26T13:18:53.132Z,48.70
2019-01-26T13:21:19.289Z,48.70
2019-01-26T13:23:45.450Z,48.80
2019-01-26T13:26:11.596Z,48.60
2019-01-26T13:28:38.537Z,48.60
2019-01-26T13:31:04.707Z,48.60
2019-01-26T13:33:30.885Z,48.50
2019-01-26T13:35:57.036Z,48.50
2019-01-26T13:38:23.183Z,48.50
2019-01-26T13:40:49.339Z,48.40
2019-01-26T13:43:15.488Z,48.50
2019-01-26T13:45:41.643Z,48.50
2019-01-26T13:48:07.854Z,48.30
2019-01-26T13:50:34.010Z,48.20
2019-01-26T13:53:00.166Z,48.40
2019-01-26T13:55:26.312Z,48.30
2019-01-26T13:57:52.464Z,48.40
2019-01-26T14:00:18.625Z,48.20
2019-01-26T14:02:44.784Z,48.20
2019-01-26T14:05:10.951Z,48.10
2019-01-26T14:07:37.105Z,48.00
2019-01-26T14:10:03.254Z,47.90
2019-01-26T14:12:29.426Z,47.90
2019-01-26T14:14:55.616Z,48.00
2019-01-26T14:17:21.765Z,47.90
2019-01-26T14:19:51.347Z,48.50
2019-01-26T14:22:16.695Z,47.80
2019-01-26T14:24:43.030Z,47.80
2019-01-26T14:27:09.183Z,47.80
2019-01-26T14:29:35.337Z,47.70
2019-01-26T14:32:01.482Z,47.80
2019-01-26T14:34:27.637Z,47.60
2019-01-26T14:36:53.789Z,47.50
2019-01-26T14:39:19.957Z,47.50
2019-01-26T14:41:46.116Z,47.70
2019-01-26T14:44:12.270Z,47.60
2019-01-26T14:46:38.410Z,47.50
2019-01-26T14:49:04.578Z,47.50
2019-01-26T14:51:31.493Z,47.50
2019-01-26T14:53:57.646Z,47.50
2019-01-26T14:56:23.814Z,47.60
2019-01-26T14:58:49.964Z,47.40
2019-01-26T15:01:16.123Z,47.40
2019-01-26T15:03:42.266Z,47.50
2019-01-26T15:06:08.427Z,47.50
2019-01-26T15:08:34.576Z,47.40
2019-01-26T15:11:00.733Z,47.40
2019-01-26T15:13:26.890Z,47.50
2019-01-26T15:15:53.052Z,47.50
2019-01-26T15:18:19.206Z,47.30
2019-01-26T15:20:45.352Z,47.40
2019-01-26T15:23:12.426Z,47.20
2019-01-26T15:25:37.697Z,47.30
2019-01-26T15:28:03.867Z,47.30
2019-01-26T15:30:30.089Z,47.40
2019-01-26T15:32:56.241Z,47.10
2019-01-26T15:35:22.396Z,47.10
2019-01-26T15:37:48.554Z,47.80
2019-01-26T15:40:14.702Z,47.10
2019-01-26T15:42:40.848Z,47.10
2019-01-26T15:45:06.988Z,47.10
2019-01-26T15:47:33.154Z,46.90
2019-01-26T15:49:59.322Z,47.00
2019-01-26T15:52:25.473Z,47.00
2019-01-26T15:54:51.620Z,47.10
2019-01-26T15:57:17.776Z,47.10
2019-01-26T15:59:44.033Z,47.10
2019-01-26T16:02:10.192Z,47.10
2019-01-26T16:04:36.354Z,46.90
2019-01-26T16:07:02.548Z,46.90
2019-01-26T16:09:28.758Z,47.00
2019-01-26T16:11:54.937Z,46.50
2019-01-26T16:14:21.090Z,46.90
2019-01-26T16:16:47.251Z,46.90
2019-01-26T16:19:13.410Z,46.90
2019-01-26T16:21:39.557Z,46.80
2019-01-26T16:24:05.707Z,46.70
2019-01-26T16:26:31.878Z,46.80
2019-01-26T16:28:58.027Z,46.70
2019-01-26T16:31:24.181Z,47.40
2019-01-26T16:33:50.331Z,46.70
2019-01-26T16:36:16.486Z,46.70
2019-01-26T16:38:42.636Z,46.70
2019-01-26T16:41:08.796Z,46.60
2019-01-26T16:43:34.953Z,46.50
2019-01-26T16:46:01.126Z,46.40
2019-01-26T16:48:27.292Z,46.60
2019-01-26T16:50:53.478Z,46.50
2019-01-26T16:53:19.643Z,46.50
2019-01-26T16:55:45.808Z,46.60
2019-01-26T16:58:12.013Z,46.60
2019-01-26T17:00:38.160Z,46.50
2019-01-26T17:03:04.338Z,46.10
2019-01-26T17:05:30.539Z,46.00
2019-01-26T17:07:56.694Z,45.90
2019-01-26T17:10:22.844Z,46.00
2019-01-26T17:12:49.020Z,46.00
2019-01-26T17:15:15.229Z,46.20
2019-01-26T17:17:41.397Z,46.30
2019-01-26T17:20:07.545Z,46.30
2019-01-26T17:22:33.696Z,46.50
2019-01-26T17:25:00.612Z,46.60
2019-01-26T17:27:26.772Z,46.60
2019-01-26T17:29:52.924Z,46.70
2019-01-26T17:32:19.073Z,47.90
2019-01-26T17:34:45.227Z,47.10
2019-01-26T17:37:11.372Z,47.20
2019-01-26T17:39:37.526Z,47.40
2019-01-26T17:42:03.672Z,47.30
2019-01-26T17:44:29.887Z,47.50
2019-01-26T17:46:56.048Z,47.70
2019-01-26T17:49:22.220Z,47.80
2019-01-26T17:51:48.377Z,47.80
2019-01-26T17:54:14.524Z,47.80
2019-01-26T17:56:40.682Z,47.80
2019-01-26T17:59:06.851Z,47.90
2019-01-26T18:01:33.008Z,48.00
2019-01-26T18:03:59.156Z,48.00
2019-01-26T18:06:26.080Z,48.20
2019-01-26T18:08:52.237Z,48.20
2019-01-26T18:11:18.384Z,48.30
2019-01-26T18:13:44.562Z,48.30
2019-01-26T18:16:10.716Z,48.30
2019-01-26T18:18:36.860Z,48.40
2019-01-26T18:21:03.013Z,48.40
2019-01-26T18:23:29.170Z,48.50
2019-01-26T18:25:55.358Z,48.70
2019-01-26T18:28:21.524Z,48.50
2019-01-26T18:30:47.684Z,48.50
2019-01-26T18:33:13.832Z,48.70
2019-01-26T18:35:40.040Z,48.70
2019-01-26T18:38:06.210Z,48.80
2019-01-26T18:40:32.356Z,48.70
2019-01-26T18:42:58.518Z,48.70
2019-01-26T18:45:24.674Z,48.60
2019-01-26T18:47:50.828Z,48.70
2019-01-26T18:50:17.747Z,48.70
2019-01-26T18:52:43.897Z,48.70
2019-01-26T18:55:10.054Z,49.00
2019-01-26T18:57:36.208Z,49.00
2019-01-26T19:00:02.376Z,48.90
2019-01-26T19:02:29.301Z,48.80
2019-01-26T19:04:55.452Z,48.70
2019-01-26T19:07:21.601Z,48.80
2019-01-26T19:09:47.751Z,48.80
2019-01-26T19:12:13.910Z,48.80
2019-01-26T19:14:40.071Z,48.80
2019-01-26T19:17:06.227Z,48.90
2019-01-26T19:19:32.371Z,48.80
2019-01-26T19:21:58.517Z,48.70
2019-01-26T19:24:24.674Z,49.00
2019-01-26T19:26:50.827Z,48.80
2019-01-26T19:29:16.982Z,49.40
2019-01-26T19:31:43.137Z,48.70
2019-01-26T19:34:09.284Z,48.70
2019-01-26T19:36:35.446Z,48.90
2019-01-26T19:39:01.599Z,48.90
2019-01-26T19:41:27.753Z,48.80
2019-01-26T19:43:53.902Z,48.70
2019-01-26T19:46:20.058Z,48.80
2019-01-26T19:48:46.201Z,48.70
2019-01-26T19:51:12.361Z,48.80
2019-01-26T19:53:38.522Z,48.90
2019-01-26T19:56:04.672Z,48.90
2019-01-26T19:58:30.821Z,48.90
2019-01-26T20:00:57.012Z,48.70
2019-01-26T20:03:23.177Z,48.80
2019-01-26T20:05:49.340Z,49.00
2019-01-26T20:08:15.504Z,49.00
2019-01-26T20:10:41.644Z,49.00
2019-01-26T20:13:07.817Z,48.90
2019-01-26T20:15:33.990Z,48.80
2019-01-26T20:18:00.165Z,48.80
2019-01-26T20:20:26.315Z,48.90
2019-01-26T20:22:52.462Z,48.80
2019-01-26T20:25:18.617Z,48.90
2019-01-26T20:27:44.787Z,48.90
2019-01-26T20:30:10.996Z,48.90
2019-01-26T20:32:37.202Z,48.80
2019-01-26T20:35:03.432Z,48.80
2019-01-26T20:37:29.655Z,48.80
2019-01-26T20:39:55.900Z,48.90
2019-01-26T20:42:22.122Z,48.80
2019-01-26T20:44:48.327Z,48.60
2019-01-26T20:47:14.564Z,48.80
2019-01-26T20:49:40.789Z,48.60
2019-01-26T20:52:06.953Z,48.60
2019-01-26T20:54:33.257Z,48.70
2019-01-26T20:56:59.683Z,48.50
2019-01-26T20:59:26.104Z,48.50
2019-01-26T21:01:52.369Z,48.50
2019-01-26T21:04:18.565Z,48.40
2019-01-26T21:06:44.789Z,48.40
2019-01-26T21:09:11.045Z,48.50
2019-01-26T21:11:37.310Z,48.40
2019-01-26T21:14:05.234Z,48.40
2019-01-26T21:16:31.758Z,48.40
2019-01-26T21:18:57.995Z,48.40
2019-01-26T21:21:24.221Z,48.30
2019-01-26T21:23:50.431Z,48.40
2019-01-26T21:26:16.660Z,48.40
2019-01-26T21:28:42.900Z,48.30
2019-01-26T21:31:09.122Z,48.40
2019-01-26T21:33:35.346Z,48.40
2019-01-26T21:36:01.575Z,48.30
2019-01-26T21:38:27.903Z,48.40
2019-01-26T21:40:54.451Z,48.30
2019-01-26T21:43:20.681Z,49.10
2019-01-26T21:45:46.898Z,48.20
2019-01-26T21:48:13.228Z,48.20
2019-01-26T21:50:39.761Z,48.20
2019-01-26T21:53:06.002Z,48.30
2019-01-26T21:55:32.223Z,48.30
2019-01-26T21:57:58.417Z,48.20
2019-01-26T22:00:24.668Z,48.30
2019-01-26T22:02:50.898Z,48.20
2019-01-26T22:05:17.082Z,48.30
2019-01-26T22:07:43.252Z,48.20
2019-01-26T22:10:09.582Z,48.20
2019-01-26T22:12:35.808Z,48.20
2019-01-26T22:15:02.417Z,48.20
2019-01-26T22:17:28.671Z,48.10
2019-01-26T22:19:54.896Z,48.10
2019-01-26T22:22:21.124Z,48.10
2019-01-26T22:24:47.358Z,48.10
2019-01-26T22:27:13.577Z,48.10
2019-01-26T22:29:39.803Z,48.10
2019-01-26T22:32:06.033Z,48.00
2019-01-26T22:34:32.260Z,48.10
2019-01-26T22:36:58.484Z,48.00
2019-01-26T22:39:24.714Z,47.90
2019-01-26T22:41:50.936Z,48.00
2019-01-26T22:44:17.171Z,48.00
2019-01-26T22:46:44.626Z,48.10
2019-01-26T22:49:10.865Z,48.10
2019-01-26T22:51:37.216Z,48.00
2019-01-26T22:54:03.712Z,48.00
2019-01-26T22:56:29.947Z,48.10
2019-01-26T22:58:56.223Z,48.00
2019-01-26T23:01:22.401Z,48.00
2019-01-26T23:03:48.616Z,48.00
2019-01-26T23:06:14.849Z,48.10
2019-01-26T23:08:41.074Z,48.00
2019-01-26T23:11:07.299Z,48.00
2019-01-26T23:13:33.530Z,48.00
2019-01-26T23:15:59.756Z,48.00
2019-01-26T23:18:25.913Z,48.00
2019-01-26T23:20:52.209Z,48.00
2019-01-26T23:23:18.427Z,48.00
2019-01-26T23:25:44.660Z,48.00
2019-01-26T23:28:10.891Z,48.00
2019-01-26T23:30:37.116Z,48.00
2019-01-26T23:33:03.348Z,48.00
2019-01-26T23:35:29.508Z,47.90
2019-01-26T23:37:55.788Z,47.90
2019-01-26T23:40:22.021Z,47.90
2019-01-26T23:42:48.255Z,47.80
2019-01-26T23:45:14.486Z,47.90
2019-01-26T23:47:40.712Z,47.90
2019-01-26T23:50:06.944Z,47.90
2019-01-26T23:52:33.172Z,47.90
2019-01-26T23:54:59.349Z,47.90
2019-01-26T23:57:25.623Z,47.70
2019-01-26T23:59:51.841Z,47.80
